This is the latest recevied weather packets stored in our database for station/object K3HW. If no packets are shown the sender has not sent any weather packets the latest 10 day(s).
| Time | Temp. | Humidity | Pressure | Rain* | Wind** | Luminosity | Snow |
|---|---|---|---|---|---|---|---|
| 1777979649 | 16.11° C | 66% | 1014.4 hPa | 0 mm | - | 43 W/m² | - |
| 1777979345 | 15.56° C | 67% | 1014.5 hPa | 0 mm | - | 38 W/m² | - |
| 1777979042 | 14.44° C | 71% | 1014.3 hPa | 0 mm | - | 26 W/m² | - |
| 1777978739 | 13.33° C | 75% | 1014.5 hPa | 0 mm | - | 26 W/m² | - |
| 1777978435 | 12.78° C | 77% | 1014.3 hPa | 0 mm | - | 21 W/m² | - |
| 1777978132 | 12.78° C | 77% | 1014.3 hPa | 0 mm | - | 17 W/m² | - |
| 1777977829 | 12.78° C | 77% | 1014.3 hPa | 0 mm | - | 15 W/m² | - |
| 1777977525 | 12.78° C | 77% | 1014.3 hPa | 0 mm | - | 13 W/m² | - |
| 1777977223 | 12.22° C | 77% | 1014.1 hPa | 0 mm | - | 12 W/m² | - |
| 1777976920 | 12.22° C | 77% | 1014.4 hPa | 0 mm | - | 10 W/m² | - |
| 1777976617 | 12.22° C | 77% | 1014.1 hPa | 0 mm | - | 8 W/m² | - |
| 1777976313 | 12.22° C | 76% | 1014.2 hPa | 0 mm | - | 6 W/m² | - |
| 1777976008 | 12.22° C | 76% | 1014.1 hPa | 0 mm | - | 5 W/m² | - |
| 1777975704 | 12.22° C | 76% | 1014.1 hPa | 0 mm | - | 4 W/m² | - |
| 1777975401 | 12.22° C | 76% | 1014.1 hPa | 0 mm | - | 2 W/m² | - |
| 1777975096 | 12.78° C | 75% | 1013.7 hPa | 0 mm | - | 2 W/m² | - |
| 1777974794 | 12.78° C | 74% | 1014 hPa | 0 mm | - | 1 W/m² | - |
| 1777974490 | 13.33° C | 73% | 1014 hPa | 0 mm | - | 0 W/m² | - |
| 1777974187 | 13.33° C | 72% | 1013.9 hPa | 0 mm | - | 0 W/m² | - |
| 1777973882 | 13.33° C | 72% | 1013.7 hPa | 0 mm | - | 0 W/m² | - |
| 1777973581 | 13.89° C | 71% | 1013.6 hPa | 0 mm | - | 0 W/m² | - |
| 1777973277 | 13.89° C | 71% | 1013.9 hPa | 0 mm | - | 0 W/m² | - |
| 1777972976 | 13.89° C | 70% | 1013.5 hPa | 0 mm | - | 0 W/m² | - |
| 1777972672 | 13.89° C | 70% | 1013.7 hPa | 0 mm | - | 0 W/m² | - |
| 1777972370 | 13.89° C | 70% | 1013.7 hPa | 0 mm | - | 0 W/m² | - |
* Rain latest hour (hover to see other rain measurements)
** Current wind speed in m/s (hover to see current wind gust speed)